Station 44041 - Jamestown, VA Image indicating link to RSS feed of recent meteorological observations for station 44041


Conditions at 44041 as of
(10:12 pm EDT on 06/23/2024)
0212 GMT on 06/24/2024:
     

Click on the graph icon in the table below to see a time series plot of the last five days of that observation.

5-day plot - Wind Direction Wind Direction (WDIR):SSW ( 200 deg true )
5-day plot - Wind Speed Wind Speed (WSPD): 9.7 kts
5-day plot - Wind Gust Wind Gust (GST): 11.7 kts
5-day plot - Air Temperature Air Temperature (ATMP): 82.9 °F
5-day plot - Water Temperature Water Temperature (WTMP): 84.2 °F
5-day plot - Salinity Salinity (SAL): 0.83 psu
5-day plot - Wind Speed at 10 Meters Wind Speed at 10 meters (WSPD10M): 11.7 kts
5-day plot - Wind Speed at 20 Meters Wind Speed at 20 meters (WSPD20M): 11.7 kts
5-day plot -  Wind Speed, Wind Gust and Atmospheric Pressure Combined plot of Wind Speed, Gust, and Air Pressure
Previous observations
TIME
(EDT)
5-day plot - Wind Direction
WDIR
 
5-day plot - Wind Speed
WSPD
kts
5-day plot - Wind Gust
GST
kts
5-day plot - Wave Height
WVHT
ft
5-day plot - Dominant Wave Period
DPD
sec
5-day plot - Average Wave Period
APD
sec
5-day plot - Mean Wave Direction
MWD
 
5-day plot - Atmospheric Pressure
PRES
in
5-day plot - Pressure Tendency
PTDY
in
5-day plot - Air Temperature
ATMP
°F
5-day plot - Water Temperature
WTMP
°F
5-day plot - Dew Point
DEWP
°F
5-day plot - Salinity
SAL
psu
5-day plot - Visibility
VIS
nmi
5-day plot - Tide (above MLLW)
TIDE
ft
2024-06-23 10:06 pmSSW 7.8 9.7------ 82.8 84.2- 0.86--
2024-06-23 10:00 pmSSW 7.8 11.7------ 82.8 84.4- 0.87--
2024-06-23 09:54 pmSSW 7.8 9.7------ 82.8 84.4- 0.86--
2024-06-23 09:48 pmSSW 7.8 11.7------ 82.6 84.4- 0.87--
2024-06-23 09:36 pm S 5.8 7.8------ 82.0 84.4- 0.88--
2024-06-23 09:30 pm S 5.8 5.8------ 81.9 84.4- 0.91--
2024-06-23 09:24 pm S 5.8 5.8------ 81.7 84.4- 0.93--
2024-06-23 09:18 pm S 5.8 7.8------ 81.7 84.6- 0.90--
2024-06-23 09:06 pm S 3.9 3.9------ 81.3 84.6- 0.93--
2024-06-23 09:00 pm S 3.9 3.9------ 81.1 84.6- 0.94--
2024-06-23 08:54 pm S 3.9 5.8------ 81.1 84.4- 0.93--
2024-06-23 08:48 pmSSW 3.9 3.9------ 81.3 84.2- 1.00--
2024-06-23 08:42 pm S 3.9 3.9------ 81.3 84.4- 1.00--
2024-06-23 08:36 pm S 3.9 5.8------ 81.1 84.2- 1.07--
2024-06-23 08:30 pm S 3.9 5.8------ 81.0 84.2- 1.25--
2024-06-23 08:24 pm S 3.9 3.9------ 80.8 84.2- 1.29--
2024-06-23 08:18 pm S 3.9 3.9------ 80.8 84.2- 1.29--
2024-06-23 08:06 pm S 3.9 3.9------ 80.4 84.2- 1.33--
2024-06-23 08:00 pm S 3.9 3.9------ 80.6 84.2- 1.36--
2024-06-23 07:54 pm S 3.9 3.9------ 80.6 84.2- 1.43--
2024-06-23 07:42 pm S 3.9 3.9------ 80.4 84.2- 1.45--
2024-06-23 07:36 pm S 1.9 3.9------ 80.8 84.2- 1.46--
2024-06-23 07:30 pm S 1.9 1.9------ 80.8 84.4- 1.57--
2024-06-23 07:12 pm N 1.9 1.9------ 80.1 84.6- 1.58--
2024-06-23 07:06 pmNNW 1.9 3.9------ 80.1 84.6- 1.60--
2024-06-23 07:00 pmNNW 3.9 5.8------ 79.7 84.6- 1.57--
2024-06-23 06:54 pm NW 3.9 5.8------ 79.5 84.6- 1.54--
2024-06-23 06:48 pm NW 5.8 7.8------ 79.7 84.4- 1.52--
2024-06-23 06:42 pmWNW 5.8 7.8------ 79.7 84.6- 1.48--
2024-06-23 06:36 pm NW 7.8 9.7------ 79.9 84.6- 1.57--
2024-06-23 06:30 pmNNW 5.8 7.8------ 79.9 84.6- 1.46--
2024-06-23 06:24 pmNNW 9.7 11.7------ 79.9 84.9- 1.45--
2024-06-23 06:18 pmNNW 9.7 11.7------ 80.4 84.7- 1.44--
2024-06-23 06:12 pmNNW 11.7 13.6------ 81.3 84.6- 1.22--
2024-06-23 06:06 pm NW 13.6 17.5------ 81.7 84.4- 1.28--
2024-06-23 06:00 pm NW 15.5 21.4------ 83.1 84.7- 1.32--
2024-06-23 05:54 pm W 13.6 17.5------ 86.7 84.6- 1.47--
2024-06-23 05:48 pm SW 5.8 7.8------ 88.0 84.9- 1.36--
2024-06-23 05:42 pmSSW 5.8 9.7------ 88.3 84.9- 1.46--
2024-06-23 05:36 pmSSW 7.8 9.7------ 88.3 85.3- 1.33--
2024-06-23 05:30 pmSSW 7.8 9.7------ 88.5 85.3- 1.25--
2024-06-23 05:24 pmSSW 5.8 7.8------ 88.7 85.1- 1.26--
2024-06-23 05:18 pmSSW 5.8 7.8------ 88.7 85.3- 1.52--
2024-06-23 05:12 pmSSW 7.8 9.7------ 88.7 85.6- 1.48--
2024-06-23 05:06 pmSSW 9.7 13.6------ 88.7 85.6- 1.61--
2024-06-23 05:00 pmSSW 9.7 11.7------ 88.7 86.0- 1.43--
2024-06-23 04:54 pm S 9.7 13.6------ 88.5 86.4- 1.50--
2024-06-23 04:48 pm S 7.8 9.7------ 88.2 86.5- 1.44--
2024-06-23 04:42 pm S 7.8 11.7------ 88.3 85.3- 1.15--
2024-06-23 04:36 pm S 5.8 9.7------ 87.6 85.1- 1.86--
2024-06-23 04:30 pm S 5.8 7.8------ 86.5 84.9- 2.16--
2024-06-23 04:24 pmSSE 5.8 5.8------ 85.8 84.9- 2.15--
2024-06-23 04:18 pm SE 5.8 7.8------ 86.4 85.1- 2.13--
2024-06-23 04:12 pmSSE 5.8 7.8------ 87.3 84.9- 2.33--
2024-06-23 04:06 pm S 7.8 9.7------ 87.4 84.9- 2.49--
2024-06-23 04:00 pm S 7.8 9.7------ 87.1 84.9- 2.53--
2024-06-23 03:54 pmSSW 9.7 13.6------ 86.7 84.9- 2.48--
2024-06-23 03:48 pmSSW 11.7 13.6------ 86.4 84.9- 2.54--
2024-06-23 03:42 pm SW 11.7 15.5------ 86.2 84.9- 2.61--
2024-06-23 03:36 pm SW 9.7 15.5------ 86.0 84.9- 2.59--
2024-06-23 03:30 pm SW 7.8 7.8------ 86.0 84.9- 2.63--
2024-06-23 03:24 pmSSW 7.8 9.7------ 85.5 84.9- 2.63--
2024-06-23 03:18 pmSSW 9.7 11.7------ 85.5 84.9- 2.64--
2024-06-23 03:12 pmSSW 7.8 9.7------ 84.9 84.9- 2.63--
2024-06-23 03:06 pm SW 7.8 9.7------ 84.0 84.9- 2.62--
2024-06-23 03:00 pmSSW 13.6 17.5------ 84.4 84.9- 2.63--
2024-06-23 02:54 pm SW 5.8 9.7------ 83.8 84.9- 2.65--
2024-06-23 02:48 pm SW 11.7 15.5------ 82.8 84.7- 2.66--
2024-06-23 02:42 pm SW 11.7 15.5------ 88.2 84.7- 2.58--
2024-06-23 02:36 pmSSW 11.7 13.6------ 88.2 84.7- 2.50--
2024-06-23 02:30 pmSSW 11.7 15.5------ 88.3 84.7- 2.52--
2024-06-23 02:24 pmSSW 13.6 17.5------ 88.7 84.7- 2.39--
2024-06-23 02:18 pm SW 9.7 11.7------ 88.9 84.7- 2.35--
2024-06-23 02:12 pm SW 11.7 13.6------ 88.9 84.7- 2.32--
2024-06-23 02:06 pmSSW 9.7 13.6------ 88.9 84.7- 2.43--
2024-06-23 02:00 pm SW 13.6 17.5------ 88.7 84.6- 2.47--
2024-06-23 01:54 pmSSW 9.7 13.6------ 88.7 84.6- 2.42--
2024-06-23 01:48 pmSSW 13.6 17.5------ 88.7 84.6- 2.31--
2024-06-23 01:42 pmSSW 11.7 21.4------ 88.5 84.6- 2.35--
2024-06-23 01:36 pmSSW 9.7 13.6------ 88.5 84.6- 2.40--
2024-06-23 01:30 pm S 9.7 13.6------ 88.3 84.6- 2.25--
2024-06-23 01:24 pmWSW 9.7 13.6------ 88.3 84.4- 2.21--
2024-06-23 01:18 pmSSW 7.8 11.7------ 88.2 84.4- 2.17--
2024-06-23 01:06 pm SW 7.8 11.7------ 88.0 84.2- 1.95--
2024-06-23 01:00 pm SW 13.6 17.5------ 87.8 84.0- 1.74--
2024-06-23 12:54 pm SW 13.6 17.5------ 87.6 84.0- 1.77--
2024-06-23 12:48 pm SW 9.7 13.6------ 87.4 84.0- 1.65--
2024-06-23 12:42 pm SW 9.7 13.6------ 85.1 84.0- 1.63--
2024-06-23 12:36 pm SW 9.7 15.5------ 87.3 83.8- 1.55--
2024-06-23 12:30 pm SW 9.7 15.5------ 87.1 84.0- 1.46--
2024-06-23 12:24 pmWSW 11.7 13.6------ 86.9 84.0- 1.37--
2024-06-23 12:18 pm SW 9.7 13.6------ 86.7 83.8- 1.31--
2024-06-23 12:12 pmSSW 13.6 21.4------ 86.5 83.8- 1.20--
2024-06-23 12:06 pmSSW 11.7 15.5------ 86.4 83.8- 1.20--
2024-06-23 12:00 pm SW 9.7 13.6------ 86.4 83.8- 1.18--
2024-06-23 11:54 am SW 11.7 13.6------ 86.0 83.8- 1.12--
2024-06-23 11:48 am SW 11.7 15.5------ 85.8 83.8- 1.11--
2024-06-23 11:42 am SW 11.7 13.6------ 85.6 83.8- 1.07--
2024-06-23 11:36 am SW 7.8 11.7------ 85.5 83.7- 1.04--
2024-06-23 11:30 am SW 11.7 13.6------ 85.5 83.7- 1.03--
2024-06-23 11:24 am SW 7.8 9.7------ 85.3 83.7- 1.04--
2024-06-23 11:18 am SW 9.7 13.6------ 84.9 83.7- 0.98--
2024-06-23 11:12 amWSW 9.7 13.6------ 84.9 83.7- 1.00--
2024-06-23 11:06 am SW 9.7 15.5------ 84.7 83.5- 0.98--
2024-06-23 11:00 amWSW 11.7 13.6------ 84.6 83.7- 1.00--
2024-06-23 10:54 am SW 9.7 11.7------ 84.4 83.5- 0.92--
2024-06-23 10:48 amSSW 9.7 13.6------ 84.2 83.5- 0.89--
2024-06-23 10:42 amWSW 9.7 11.7------ 84.0 83.5- 0.88--
2024-06-23 10:36 amWSW 11.7 13.6------ 84.0 83.5- 0.89--
2024-06-23 10:30 am SW 11.7 15.5------ 83.8 83.5- 0.87--
2024-06-23 10:24 am SW 9.7 13.6------ 84.0 83.5- 0.85--
2024-06-23 10:18 amWSW 9.7 11.7------ 83.8 83.5- 0.85--
2024-06-23 10:06 am SW 9.7 13.6------ 84.0 83.3- 0.93--
2024-06-23 10:00 amWSW 7.8 11.7------ 84.0 83.3- 1.01--
2024-06-23 09:54 amWSW 9.7 13.6------ 83.8 83.3- 1.01--
2024-06-23 09:48 amWSW 9.7 13.6------ 84.0 83.1- 1.05--
2024-06-23 09:36 amSSW 9.7 13.6------ 83.1 82.9- 1.12--
2024-06-23 09:30 am SW 9.7 11.7------ 82.9 82.9- 1.18--
2024-06-23 09:24 am SW 9.7 15.5------ 82.9 83.1- 1.14--
2024-06-23 09:18 am SW 7.8 11.7------ 82.8 83.1- 1.02--
2024-06-23 09:12 am SW 7.8 11.7------ 82.6 82.9- 1.02--
2024-06-23 09:06 am SW 9.7 13.6------ 82.2 82.9- 1.16--
2024-06-23 09:00 am SW 9.7 13.6------ 82.2 82.9- 1.16--
2024-06-23 08:54 am SW 9.7 13.6------ 81.7 82.9- 1.15--
2024-06-23 08:48 amSSW 11.7 15.5------ 81.7 82.9- 1.14--
2024-06-23 08:42 am SW 9.7 11.7------ 81.9 82.9- 1.12--
2024-06-23 08:36 am SW 9.7 11.7------ 81.7 82.9- 1.19--
2024-06-23 08:30 am SW 9.7 13.6------ 81.5 82.9- 1.19--
2024-06-23 08:24 am SW 9.7 13.6------ 81.3 82.9- 1.22--
2024-06-23 08:18 am SW 9.7 15.5------ 80.8 82.9- 1.26--
2024-06-23 08:06 am SW 11.7 15.5------ 80.4 82.9- 1.34--
2024-06-23 08:00 am SW 9.7 13.6------ 79.9 82.9- 1.53--
2024-06-23 07:54 am SW 11.7 15.5------ 78.6 82.9- 1.57--
2024-06-23 07:48 am SW 11.7 15.5------ 78.3 82.9- 1.57--
2024-06-23 07:42 am SW 11.7 15.5------ 78.4 82.9- 1.64--
2024-06-23 07:36 am SW 11.7 15.5------ 79.5 83.1- 1.65--
2024-06-23 07:30 am SW 9.7 13.6------ 79.9 83.1- 1.77--
2024-06-23 07:24 am SW 9.7 13.6------ 79.5 83.3- 1.76--
2024-06-23 07:18 amSSW 11.7 15.5------ 79.3 83.3- 1.86--
2024-06-23 07:12 amSSW 9.7 13.6------ 78.8 83.5- 1.94--
2024-06-23 07:06 amSSW 9.7 13.6------ 77.4 83.5- 2.04--
2024-06-23 07:00 am SW 9.7 13.6------ 77.0 83.3- 2.04--
2024-06-23 06:54 amSSW 9.7 15.5------ 77.0 83.7- 1.99--
2024-06-23 06:48 amSSW 9.7 13.6------ 77.4 83.7- 2.22--
2024-06-23 06:42 am SW 9.7 11.7------ 77.4 83.7- 2.28--
2024-06-23 06:36 am SW 9.7 13.6------ 77.5 83.7- 2.28--
2024-06-23 06:30 am SW 9.7 13.6------ 77.9 83.8- 2.24--
2024-06-23 06:24 am SW 7.8 11.7------ 77.9 83.7- 2.36--
2024-06-23 06:18 am SW 7.8 11.7------ 77.7 83.8- 2.27--
2024-06-23 06:12 amSSW 7.8 11.7------ 77.4 83.8- 2.48--
2024-06-23 06:06 amSSW 7.8 9.7------ 76.8 83.8- 2.53--
2024-06-23 06:00 amSSW 7.8 11.7------ 76.8 83.8- 2.42--
2024-06-23 05:54 amSSW 7.8 9.7------ 77.0 84.0- 2.51--
2024-06-23 05:48 amSSW 7.8 11.7------ 77.0 84.0- 2.52--
2024-06-23 05:42 amSSW 7.8 11.7------ 77.0 83.8- 2.51--
2024-06-23 05:36 amSSW 7.8 9.7------ 77.2 83.7- 2.47--
2024-06-23 05:30 amSSW 7.8 9.7------ 77.4 83.8- 2.35--
2024-06-23 05:18 am SW 7.8 9.7------ 77.4 83.8- 2.50--
2024-06-23 05:06 amSSW 7.8 11.7------ 77.5 84.0- 2.49--
2024-06-23 05:00 am SW 7.8 9.7------ 77.5 84.0- 2.43--
2024-06-23 04:48 amSSW 9.7 11.7------ 77.9 83.7- 2.40--
2024-06-23 04:42 am SW 7.8 11.7------ 77.9 83.7- 1.97--
2024-06-23 04:36 amSSW 7.8 11.7------ 77.9 83.8- 1.68--
2024-06-23 04:30 amSSW 7.8 11.7------ 78.1 83.7- 1.82--
2024-06-23 04:24 amSSW 9.7 13.6------ 78.3 83.7- 1.73--
2024-06-23 04:18 amSSW 9.7 11.7------ 78.4 83.7- 1.69--
2024-06-23 04:12 am SW 7.8 13.6------ 78.6 83.8- 1.57--
2024-06-23 04:06 amSSW 9.7 13.6------ 78.6 84.4- 1.69--
2024-06-23 04:00 am SW 11.7 13.6------ 78.8 84.2- 2.53--
2024-06-23 03:54 am SW 11.7 13.6------ 79.0 84.4- 2.85--
2024-06-23 03:48 am SW 9.7 13.6------ 79.0 84.6- 2.87--
2024-06-23 03:42 am SW 11.7 15.5------ 79.0 84.6- 3.14--
2024-06-23 03:36 am SW 9.7 13.6------ 79.0 84.6- 3.16--
2024-06-23 03:30 am SW 11.7 15.5------ 79.0 84.6- 3.21--
2024-06-23 03:24 am SW 9.7 11.7------ 79.2 84.6- 3.30--
2024-06-23 03:18 amSSW 9.7 13.6------ 79.3 84.7- 3.31--
2024-06-23 03:12 amSSW 11.7 13.6------ 79.3 84.7- 3.38--
2024-06-23 03:06 am SW 9.7 13.6------ 79.5 84.7- 3.38--
2024-06-23 03:00 am SW 9.7 17.5------ 79.3 84.6- 3.34--
2024-06-23 02:54 am SW 9.7 11.7------ 79.3 84.4- 3.29--
2024-06-23 02:48 am SW 9.7 15.5------ 79.5 84.6- 3.21--
2024-06-23 02:42 am SW 7.8 11.7------ 79.3 84.6- 3.31--
2024-06-23 02:36 am SW 9.7 11.7------ 79.5 84.6- 3.29--
2024-06-23 02:30 am SW 11.7 15.5------ 79.7 84.6- 3.31--
2024-06-23 02:24 am SW 9.7 13.6------ 79.5 84.6- 3.29--
2024-06-23 02:18 amSSW 9.7 13.6------ 79.7 84.6- 3.25--
2024-06-23 02:12 amSSW 9.7 13.6------ 79.7 84.6- 3.24--
2024-06-23 02:06 amSSW 9.7 11.7------ 79.5 84.6- 3.23--
2024-06-23 02:00 amSSW 9.7 13.6------ 79.5 84.7- 3.17--
2024-06-23 01:54 amSSW 7.8 11.7------ 79.5 84.7- 3.12--
2024-06-23 01:48 amSSW 9.7 11.7------ 79.5 84.7- 3.12--
2024-06-23 01:42 amSSW 9.7 11.7------ 79.5 84.7- 3.07--
2024-06-23 01:36 amSSW 7.8 11.7------ 79.5 84.7- 3.08--
2024-06-23 01:30 amSSW 7.8 9.7------ 79.3 84.9- 3.06--
2024-06-23 01:24 amSSW 9.7 11.7------ 79.3 84.9- 3.03--
2024-06-23 01:18 amSSW 7.8 9.7------ 79.3 84.9- 2.99--
2024-06-23 01:12 amSSW 9.7 11.7------ 79.3 85.1- 2.95--
2024-06-23 01:06 amSSW 7.8 9.7------ 79.3 85.1- 2.89--
2024-06-23 01:00 amSSW 9.7 13.6------ 79.2 85.1- 2.90--
2024-06-23 12:54 amSSW 9.7 11.7------ 79.3 84.9- 2.88--
2024-06-23 12:48 am S 9.7 11.7------ 79.3 84.9- 2.83--
2024-06-23 12:36 amSSW 9.7 11.7------ 79.5 84.9- 2.77--
2024-06-23 12:30 amSSW 9.7 13.6------ 79.9 84.9- 2.75--
2024-06-23 12:24 amSSW 9.7 11.7------ 79.9 85.1- 2.60--
2024-06-23 12:18 amSSW 9.7 11.7------ 80.1 85.3- 2.66--
2024-06-23 12:12 am S 7.8 11.7------ 80.2 85.3- 2.66--
2024-06-23 12:06 am S 9.7 13.6------ 80.4 85.3- 2.67--
2024-06-23 12:00 am S 9.7 13.6------ 80.6 85.5- 2.66--
2024-06-22 11:48 pm S 9.7 13.6------ 80.8 85.3- 2.62--
2024-06-22 11:42 pm S 11.7 15.5------ 80.8 85.1- 2.52--
2024-06-22 11:36 pm S 9.7 11.7------ 80.6 85.1- 2.49--
2024-06-22 11:30 pm S 9.7 11.7------ 80.6 85.1- 2.47--
2024-06-22 11:24 pm S 9.7 11.7------ 80.6 85.1- 2.44--
2024-06-22 11:18 pm S 7.8 9.7------ 80.8 83.7- 2.45--
2024-06-22 11:12 pm S 7.8 7.8------ 80.8 83.5- 2.05--
2024-06-22 11:06 pm S 5.8 7.8------ 80.8 83.5- 1.91--
2024-06-22 11:00 pm S 5.8 7.8------ 81.1 83.5- 1.90--
2024-06-22 10:54 pm S 5.8 7.8------ 81.5 83.5- 1.53--
2024-06-22 10:48 pm S 5.8 5.8------ 81.7 83.7- 1.59--
2024-06-22 10:42 pm S 3.9 5.8------ 81.7 83.8- 1.40--
2024-06-22 10:36 pm S 5.8 5.8------ 81.9 83.8- 1.36--
2024-06-22 10:30 pm S 5.8 5.8------ 82.2 83.8- 1.33--
2024-06-22 10:24 pm S 5.8 5.8------ 82.4 84.0- 1.32--
2024-06-22 10:18 pm S 5.8 7.8------ 82.6 84.0- 1.30--
2024-06-22 10:06 pm S 5.8 5.8------ 82.6 84.0- 1.30--
2024-06-22 10:00 pm S 5.8 5.8------ 82.8 84.0- 1.27--
2024-06-22 09:54 pm S 5.8 5.8------ 82.8 84.2- 1.27--

Ocean Conditions at 44041 as of
(10:12 pm EDT on 06/23/2024)
0212 GMT on 06/24/2024:

These oceanographic data are displayed in rounded times.

     

Click on the graph icon in the table below to see a time series plot of the last five days of that observation.

Depth (DEPTH): 3.3 ft
5-day plot - Ocean Temperature Ocean Temperature (OTMP):84.27 °F
5-day plot - Salinity Salinity (SAL): 0.83 psu
Previous observations
TIME
(EDT)
DEPTH
ft
5-day plot - Ocean Temperature
OTMP
°F
5-day plot - Conductivity
COND
mS/cm
5-day plot - Salinity
SAL
psu
5-day plot - Oxygen Concentration
O2%
%
5-day plot - Oxygen Concentration
O2PPM
ppm
5-day plot - Chlorophyll
CLCON
ug/l
5-day plot - Turbidity
TURB
FTU
5-day plot - pH
PH
 
5-day plot - Eh
EH
mv
2024-06-23 10:06 pm 3.384.27- 0.86------
2024-06-23 10:00 pm 3.384.31- 0.87------
2024-06-23 09:54 pm 3.384.33- 0.86------
2024-06-23 09:48 pm 3.384.33- 0.87------
2024-06-23 09:36 pm 3.384.43- 0.88------
2024-06-23 09:30 pm 3.384.45- 0.91------
2024-06-23 09:24 pm 3.384.36- 0.93------
2024-06-23 09:18 pm 3.384.49- 0.90------
2024-06-23 09:06 pm 3.384.51- 0.93------
2024-06-23 09:00 pm 3.384.49- 0.94------
2024-06-23 08:54 pm 3.384.40- 0.93------
2024-06-23 08:48 pm 3.384.27- 1.00------
2024-06-23 08:42 pm 3.384.40- 1.00------
2024-06-23 08:36 pm 3.384.22- 1.07------
2024-06-23 08:30 pm 3.384.15- 1.25------
2024-06-23 08:24 pm 3.384.11- 1.29------
2024-06-23 08:18 pm 3.384.16- 1.29------
2024-06-23 08:06 pm 3.384.18- 1.33------
2024-06-23 08:00 pm 3.384.16- 1.36------
2024-06-23 07:54 pm 3.384.16- 1.43------
2024-06-23 07:42 pm 3.384.22- 1.45------
2024-06-23 07:36 pm 3.384.25- 1.46------
2024-06-23 07:30 pm 3.384.29- 1.57------
2024-06-23 07:24 pm 3.384.38- 1.58------
2024-06-23 07:18 pm 3.384.45- 1.60------
2024-06-23 07:12 pm 3.384.51- 1.57------
2024-06-23 07:06 pm 3.384.52- 1.54------
2024-06-23 07:00 pm 3.384.47- 1.52------
2024-06-23 06:54 pm 3.384.47- 1.48------
2024-06-23 06:48 pm 3.384.45- 1.57------
2024-06-23 06:42 pm 3.384.61- 1.46------
2024-06-23 06:36 pm 3.384.60- 1.45------
2024-06-23 06:30 pm 3.384.63- 1.44------
2024-06-23 06:24 pm 3.384.90- 1.22------
2024-06-23 06:18 pm 3.384.67- 1.28------
2024-06-23 06:12 pm 3.384.56- 1.32------
2024-06-23 06:06 pm 3.384.42- 1.47------
2024-06-23 06:00 pm 3.384.69- 1.36------
2024-06-23 05:54 pm 3.384.52- 1.46------
2024-06-23 05:48 pm 3.384.92- 1.33------
2024-06-23 05:42 pm 3.385.01- 1.25------
2024-06-23 05:36 pm 3.385.33- 1.26------
2024-06-23 05:30 pm 3.385.32- 1.52------
2024-06-23 05:24 pm 3.385.17- 1.48------
2024-06-23 05:18 pm 3.385.32- 1.61------
2024-06-23 05:12 pm 3.385.57- 1.43------
2024-06-23 05:06 pm 3.385.69- 1.50------
2024-06-23 05:00 pm 3.386.00- 1.44------
2024-06-23 04:54 pm 3.386.29- 1.15------
2024-06-23 04:48 pm 3.386.49- 1.86------
2024-06-23 04:42 pm 3.385.33- 2.16------
2024-06-23 04:36 pm 3.385.03- 2.15------
2024-06-23 04:30 pm 3.384.90- 2.13------
2024-06-23 04:24 pm 3.384.88- 2.33------
2024-06-23 04:18 pm 3.385.01- 2.49------
2024-06-23 04:12 pm 3.384.96- 2.53------
2024-06-23 04:06 pm 3.384.90- 2.48------
2024-06-23 04:00 pm 3.384.90- 2.54------
2024-06-23 03:54 pm 3.384.97- 2.61------
2024-06-23 03:48 pm 3.384.96- 2.59------
2024-06-23 03:42 pm 3.384.99- 2.63------
2024-06-23 03:36 pm 3.384.99- 2.63------
2024-06-23 03:30 pm 3.384.99- 2.64------
2024-06-23 03:24 pm 3.384.92- 2.63------
2024-06-23 03:18 pm 3.384.88- 2.62------
2024-06-23 03:12 pm 3.384.90- 2.63------
2024-06-23 03:06 pm 3.384.92- 2.65------
2024-06-23 03:00 pm 3.384.90- 2.66------
2024-06-23 02:54 pm 3.384.87- 2.58------
2024-06-23 02:48 pm 3.384.76- 2.50------
2024-06-23 02:42 pm 3.384.79- 2.52------
2024-06-23 02:36 pm 3.384.70- 2.39------
2024-06-23 02:30 pm 3.384.67- 2.35------
2024-06-23 02:24 pm 3.384.65- 2.32------
2024-06-23 02:18 pm 3.384.70- 2.43------
2024-06-23 02:12 pm 3.384.78- 2.47------
2024-06-23 02:06 pm 3.384.72- 2.42------
2024-06-23 02:00 pm 3.384.63- 2.31------
2024-06-23 01:54 pm 3.384.56- 2.35------
2024-06-23 01:48 pm 3.384.56- 2.40------
2024-06-23 01:42 pm 3.384.54- 2.25------
2024-06-23 01:36 pm 3.384.54- 2.21------
2024-06-23 01:30 pm 3.384.49- 2.17------
2024-06-23 01:24 pm 3.384.43- 2.02------
2024-06-23 01:18 pm 3.384.34- 1.95------
2024-06-23 01:06 pm 3.384.15- 1.74------
2024-06-23 01:00 pm 3.384.04- 1.77------
2024-06-23 12:54 pm 3.384.07- 1.65------
2024-06-23 12:48 pm 3.383.97- 1.63------
2024-06-23 12:42 pm 3.384.06- 1.55------
2024-06-23 12:36 pm 3.383.91- 1.46------
2024-06-23 12:30 pm 3.383.98- 1.37------
2024-06-23 12:24 pm 3.383.97- 1.31------
2024-06-23 12:18 pm 3.383.89- 1.20------
2024-06-23 12:12 pm 3.383.86- 1.20------
2024-06-23 12:06 pm 3.383.79- 1.18------
2024-06-23 12:00 pm 3.383.86- 1.12------
2024-06-23 11:54 am 3.383.77- 1.11------
2024-06-23 11:48 am 3.383.77- 1.07------
2024-06-23 11:42 am 3.383.77- 1.04------
2024-06-23 11:36 am 3.383.66- 1.03------
2024-06-23 11:30 am 3.383.59- 1.04------
2024-06-23 11:24 am 3.383.66- 0.98------
2024-06-23 11:18 am 3.383.57- 1.00------
2024-06-23 11:12 am 3.383.59- 0.98------
2024-06-23 11:06 am 3.383.46- 1.00------
2024-06-23 11:00 am 3.383.57- 0.92------
2024-06-23 10:54 am 3.383.44- 0.89------
2024-06-23 10:48 am 3.383.57- 0.88------
2024-06-23 10:42 am 3.383.53- 0.89------
2024-06-23 10:36 am 3.383.55- 0.87------
2024-06-23 10:30 am 3.383.52- 0.85------
2024-06-23 10:24 am 3.383.50- 0.85------
2024-06-23 10:18 am 3.383.41- 0.93------
2024-06-23 10:06 am 3.383.30- 1.01------
2024-06-23 10:00 am 3.383.25- 1.01------
2024-06-23 09:54 am 3.383.23- 1.05------
2024-06-23 09:48 am 3.383.10- 1.12------
2024-06-23 09:36 am 3.382.98- 1.18------
2024-06-23 09:30 am 3.383.01- 1.14------
2024-06-23 09:24 am 3.383.14- 1.02------
2024-06-23 09:18 am 3.383.12- 1.02------
2024-06-23 09:12 am 3.382.94- 1.16------
2024-06-23 09:06 am 3.382.94- 1.16------
2024-06-23 09:00 am 3.382.92- 1.15------
2024-06-23 08:54 am 3.382.92- 1.14------
2024-06-23 08:48 am 3.382.92- 1.12------
2024-06-23 08:42 am 3.382.90- 1.19------
2024-06-23 08:36 am 3.382.89- 1.19------
2024-06-23 08:30 am 3.382.89- 1.22------
2024-06-23 08:24 am 3.382.87- 1.26------
2024-06-23 08:18 am 3.382.89- 1.34------
2024-06-23 08:06 am 3.382.94- 1.53------
2024-06-23 08:00 am 3.382.94- 1.57------
2024-06-23 07:54 am 3.382.92- 1.57------
2024-06-23 07:48 am 3.382.98- 1.64------
2024-06-23 07:42 am 3.383.01- 1.65------
2024-06-23 07:36 am 3.383.10- 1.77------
2024-06-23 07:30 am 3.383.14- 1.76------
2024-06-23 07:24 am 3.383.25- 1.86------
2024-06-23 07:18 am 3.383.34- 1.94------
2024-06-23 07:12 am 3.383.44- 2.04------
2024-06-23 07:06 am 3.383.44- 2.04------
2024-06-23 07:00 am 3.383.37- 1.99------
2024-06-23 06:54 am 3.383.62- 2.22------
2024-06-23 06:48 am 3.383.71- 2.28------
2024-06-23 06:42 am 3.383.71- 2.28------
2024-06-23 06:36 am 3.383.64- 2.24------
2024-06-23 06:30 am 3.383.79- 2.36------
2024-06-23 06:24 am 3.383.59- 2.27------
2024-06-23 06:18 am 3.383.84- 2.48------
2024-06-23 06:12 am 3.383.91- 2.53------
2024-06-23 06:06 am 3.383.80- 2.42------
2024-06-23 06:00 am 3.383.91- 2.51------
2024-06-23 05:54 am 3.383.95- 2.52------
2024-06-23 05:48 am 3.383.95- 2.51------
2024-06-23 05:42 am 3.383.88- 2.47------
2024-06-23 05:36 am 3.383.70- 2.35------
2024-06-23 05:30 am 3.383.89- 2.50------
2024-06-23 05:18 am 3.383.93- 2.49------
2024-06-23 05:06 am 3.383.95- 2.43------
2024-06-23 05:00 am 3.384.00- 2.40------
2024-06-23 04:48 am 3.383.73- 1.97------
2024-06-23 04:42 am 3.383.64- 1.68------
2024-06-23 04:36 am 3.383.77- 1.82------
2024-06-23 04:30 am 3.383.71- 1.73------
2024-06-23 04:24 am 3.383.66- 1.69------
2024-06-23 04:18 am 3.383.73- 1.57------
2024-06-23 04:12 am 3.383.79- 1.69------
2024-06-23 04:06 am 3.384.29- 2.53------
2024-06-23 04:00 am 3.384.25- 2.85------
2024-06-23 03:54 am 3.384.36- 2.87------
2024-06-23 03:48 am 3.384.56- 3.14------
2024-06-23 03:42 am 3.384.51- 3.16------
2024-06-23 03:36 am 3.384.54- 3.21------
2024-06-23 03:30 am 3.384.60- 3.30------
2024-06-23 03:24 am 3.384.63- 3.31------
2024-06-23 03:18 am 3.384.67- 3.38------
2024-06-23 03:12 am 3.384.67- 3.38------
2024-06-23 03:06 am 3.384.65- 3.34------
2024-06-23 03:00 am 3.384.54- 3.29------
2024-06-23 02:54 am 3.384.45- 3.21------
2024-06-23 02:48 am 3.384.49- 3.31------
2024-06-23 02:42 am 3.384.49- 3.29------
2024-06-23 02:36 am 3.384.56- 3.31------
2024-06-23 02:30 am 3.384.58- 3.29------
2024-06-23 02:24 am 3.384.51- 3.25------
2024-06-23 02:18 am 3.384.52- 3.24------
2024-06-23 02:12 am 3.384.52- 3.23------
2024-06-23 02:06 am 3.384.60- 3.17------
2024-06-23 02:00 am 3.384.69- 3.12------
2024-06-23 01:54 am 3.384.69- 3.12------
2024-06-23 01:48 am 3.384.74- 3.07------
2024-06-23 01:42 am 3.384.78- 3.08------
2024-06-23 01:36 am 3.384.81- 3.06------
2024-06-23 01:30 am 3.384.85- 3.03------
2024-06-23 01:24 am 3.384.87- 2.99------
2024-06-23 01:18 am 3.384.97- 2.95------
2024-06-23 01:12 am 3.385.03- 2.89------
2024-06-23 01:06 am 3.385.05- 2.90------
2024-06-23 01:00 am 3.385.03- 2.88------
2024-06-23 12:54 am 3.384.99- 2.83------
2024-06-23 12:48 am 3.384.99- 2.77------
2024-06-23 12:36 am 3.384.87- 2.75------
2024-06-23 12:30 am 3.384.96- 2.60------
2024-06-23 12:24 am 3.385.14- 2.66------
2024-06-23 12:18 am 3.385.26- 2.66------
2024-06-23 12:12 am 3.385.30- 2.67------
2024-06-23 12:06 am 3.385.35- 2.66------
2024-06-23 12:00 am 3.385.39- 2.62------
2024-06-22 11:48 pm 3.385.32- 2.52------
2024-06-22 11:42 pm 3.385.19- 2.49------
2024-06-22 11:36 pm 3.385.14- 2.47------
2024-06-22 11:30 pm 3.385.05- 2.44------
2024-06-22 11:24 pm 3.385.03- 2.45------
2024-06-22 11:18 pm 3.383.66- 2.05------
2024-06-22 11:12 pm 3.383.53- 1.91------
2024-06-22 11:06 pm 3.383.43- 1.90------
2024-06-22 11:00 pm 3.383.55- 1.53------
2024-06-22 10:54 pm 3.383.46- 1.59------
2024-06-22 10:48 pm 3.383.71- 1.40------
2024-06-22 10:42 pm 3.383.77- 1.36------
2024-06-22 10:36 pm 3.383.79- 1.33------
2024-06-22 10:30 pm 3.383.84- 1.32------
2024-06-22 10:24 pm 3.383.95- 1.30------
2024-06-22 10:18 pm 3.383.97- 1.30------
2024-06-22 10:06 pm 3.384.09- 1.27------
2024-06-22 10:00 pm 3.384.09- 1.27------
2024-06-22 09:54 pm 3.384.18- 1.25------